Time;durP1;ratioP1;P1;durP2;ratioP2;P2;SDS_P1;SDS_P2;PMS_P1;PMS_P2;Temp;Humidity;BMP_temperature;BMP_pressure;BME280_temperature;BME280_humidity;BME280_pressure;Samples;Min_cycle;Max_cycle;Signal;HPM_P1;HPM_P2
2024/04/13 00:02:17;;;;;;;1.67;0.70;;;;;;;-146.27;67.08;44997.16;5482423;26;20005;-67
2024/04/13 00:04:43;;;;;;;2.60;0.70;;;;;;;-146.27;67.22;45023.03;5468688;26;19995;-66
2024/04/13 00:07:08;;;;;;;3.20;0.93;;;;;;;-146.27;66.71;44953.38;5461495;26;19994;-67
2024/04/13 00:09:33;;;;;;;2.22;0.75;;;;;;;-146.27;67.98;45064.84;5485271;26;20020;-67
2024/04/13 00:11:59;;;;;;;1.17;0.70;;;;;;;-146.27;67.33;45003.16;5453485;26;20347;-67
2024/04/13 00:14:24;;;;;;;3.63;1.10;;;;;;;-146.27;67.65;45040.94;5463675;26;19998;-67
2024/04/13 00:16:49;;;;;;;6.60;0.68;;;;;;;-146.27;67.78;45064.84;5482437;26;19994;-68
2024/04/13 00:19:15;;;;;;;4.60;0.98;;;;;;;-146.27;66.99;45017.06;5475362;26;19994;-66
2024/04/13 00:21:42;;;;;;;1.92;0.80;;;;;;;-146.27;66.98;45017.06;5456742;26;20005;-66
2024/04/13 00:24:09;;;;;;;3.38;0.77;;;;;;;-146.27;67.19;45044.94;5457323;26;20013;-65
2024/04/13 00:26:35;;;;;;;6.97;1.92;;;;;;;-146.27;66.76;45015.09;5479331;26;19994;-65
2024/04/13 00:29:05;;;;;;;1.50;0.82;;;;;;;-146.27;66.94;45023.03;5453390;26;20033;-67
2024/04/13 00:31:31;;;;;;;3.67;0.82;;;;;;;-146.27;66.45;44987.22;5465262;26;20426;-68
2024/04/13 00:33:57;;;;;;;1.63;0.80;;;;;;;-146.27;67.00;45048.91;5464152;26;20026;-68
2024/04/13 00:36:22;;;;;;;4.63;1.15;;;;;;;-146.27;66.81;45027.03;5457745;26;20001;-66
2024/04/13 00:38:48;;;;;;;0.90;0.70;;;;;;;-146.27;67.00;45023.03;5459058;26;20013;-67
2024/04/13 00:41:13;;;;;;;1.45;0.90;;;;;;;-146.27;66.89;45062.84;5469417;26;20547;-70
2024/04/13 00:43:38;;;;;;;3.70;1.05;;;;;;;-146.27;67.89;45090.72;5453012;26;20010;-67
2024/04/13 00:46:07;;;;;;;2.35;0.95;;;;;;;-146.27;67.88;45040.94;5452519;26;20006;-67
2024/04/13 00:48:36;;;;;;;1.50;0.93;;;;;;;-146.27;68.18;45106.63;5457048;26;20002;-66
2024/04/13 00:51:04;;;;;;;2.13;0.90;;;;;;;-146.27;67.43;45007.13;5470671;26;20002;-67
2024/04/13 00:53:33;;;;;;;4.97;0.90;;;;;;;-146.27;67.14;45031.00;5457152;26;19995;-66
2024/04/13 00:56:01;;;;;;;1.75;0.82;;;;;;;-146.27;67.45;45031.00;5451093;26;20433;-67
2024/04/13 00:58:30;;;;;;;4.65;0.80;;;;;;;-146.27;67.73;45048.91;5471167;26;20074;-66
2024/04/13 01:00:58;;;;;;;1.67;0.82;;;;;;;-146.27;67.31;45027.03;5453051;26;20319;-67
2024/04/13 01:03:24;;;;;;;2.03;0.70;;;;;;;-146.27;67.35;45033.00;5461533;26;20434;-68
2024/04/13 01:05:51;;;;;;;0.85;0.68;;;;;;;-146.27;67.47;45042.94;5456707;26;20005;-68
2024/04/13 01:08:16;;;;;;;5.88;1.25;;;;;;;-146.27;67.86;45074.78;5472724;26;20395;-67
2024/04/13 01:10:43;;;;;;;1.65;0.90;;;;;;;-146.27;67.91;45044.94;5475009;26;20002;-67
2024/04/13 01:13:09;;;;;;;2.50;0.90;;;;;;;-146.27;68.12;45056.88;5473264;26;20009;-68
2024/04/13 01:15:36;;;;;;;3.45;1.13;;;;;;;-146.27;68.40;45046.94;5458317;26;20431;-69
2024/04/13 01:18:10;;;;;;;4.07;1.10;;;;;;;-146.27;68.47;45058.88;5451757;26;20013;-66
2024/04/13 01:20:40;;;;;;;3.40;0.93;;;;;;;-146.27;68.55;45048.91;5461307;26;20320;-65
2024/04/13 01:23:06;;;;;;;5.00;0.88;;;;;;;-146.27;68.53;45033.00;5455117;26;20035;-66
2024/04/13 01:25:33;;;;;;;2.53;0.82;;;;;;;-146.27;68.95;45052.91;5470345;26;19995;-66
2024/04/13 01:27:59;;;;;;;2.60;0.90;;;;;;;-146.27;68.62;45042.94;5450423;26;19999;-69
2024/04/13 01:30:24;;;;;;;6.75;0.93;;;;;;;-146.27;68.38;45068.81;5464557;26;20834;-67
2024/04/13 01:32:51;;;;;;;1.45;0.93;;;;;;;-146.27;68.17;45017.06;5464113;26;19999;-67
2024/04/13 01:35:19;;;;;;;2.72;0.90;;;;;;;-146.27;68.71;45038.97;5451506;26;20004;-65
2024/04/13 01:37:45;;;;;;;2.90;0.90;;;;;;;-146.27;68.29;45034.97;5460236;26;20445;-66
2024/04/13 01:40:11;;;;;;;2.95;0.90;;;;;;;-146.27;68.85;45060.84;5465223;26;20002;-66
2024/04/13 01:42:37;;;;;;;2.15;1.33;;;;;;;-146.27;68.92;45046.94;5478133;26;20009;-66
2024/04/13 01:45:04;;;;;;;2.90;1.00;;;;;;;-146.27;68.36;45034.97;5461085;26;20312;-68
2024/04/13 01:47:29;;;;;;;4.03;1.02;;;;;;;-146.27;68.52;45048.91;5450062;26;20003;-66
2024/04/13 01:49:55;;;;;;;4.65;1.05;;;;;;;-146.27;68.89;45058.88;5469558;26;19994;-69
2024/04/13 01:52:20;;;;;;;4.78;1.08;;;;;;;-146.27;69.38;45082.75;5465909;26;19998;-67
2024/04/13 01:54:46;;;;;;;3.42;1.00;;;;;;;-146.27;68.79;45034.97;5460827;25;20002;-68
2024/04/13 01:57:12;;;;;;;2.70;1.10;;;;;;;-146.27;69.00;45013.09;5451958;26;20017;-66
2024/04/13 01:59:39;;;;;;;3.65;0.90;;;;;;;-146.27;69.23;45046.94;5485142;26;20421;-67
2024/04/13 02:02:04;;;;;;;2.65;0.93;;;;;;;-146.27;69.20;45066.81;5462519;26;19999;-67
2024/04/13 02:04:30;;;;;;;3.50;1.13;;;;;;;-146.27;70.04;45054.88;5482242;26;19998;-67
2024/04/13 02:06:56;;;;;;;2.47;1.10;;;;;;;-146.27;69.57;45036.97;5462860;26;20066;-67
2024/04/13 02:09:22;;;;;;;3.78;1.10;;;;;;;-146.27;70.48;45064.84;5481785;26;20069;-67
2024/04/13 02:11:48;;;;;;;7.78;1.23;;;;;;;-146.27;70.56;45046.94;5476577;26;20470;-68
2024/04/13 02:14:13;;;;;;;3.65;1.30;;;;;;;-146.27;70.34;45019.06;5462887;26;20070;-67
2024/04/13 02:16:38;;;;;;;2.47;0.90;;;;;;;-146.27;70.56;45011.09;5476061;26;20006;-67
2024/04/13 02:19:07;;;;;;;2.40;0.88;;;;;;;-146.27;70.97;45025.03;5452036;26;20059;-67
2024/04/13 02:21:32;;;;;;;4.40;1.20;;;;;;;-146.27;70.70;45003.16;5449253;26;19990;-66
2024/04/13 02:23:58;;;;;;;4.25;1.20;;;;;;;-146.27;71.00;44995.19;5456222;26;19997;-69
2024/04/13 02:26:23;;;;;;;3.70;1.00;;;;;;;-146.27;71.05;45007.13;5480509;26;20479;-66
2024/04/13 02:28:49;;;;;;;5.80;1.58;;;;;;;-146.27;71.49;44999.16;5464913;26;20010;-67
2024/04/13 02:31:14;;;;;;;4.32;1.40;;;;;;;-146.27;71.25;44955.38;5454569;26;20009;-65
2024/04/13 02:33:40;;;;;;;6.30;1.77;;;;;;;-146.27;72.17;45013.09;5471705;26;20002;-69
2024/04/13 02:36:06;;;;;;;1.65;0.93;;;;;;;-146.27;72.90;44897.66;5485009;26;20001;-67
2024/04/13 02:38:32;;;;;;;2.97;1.20;;;;;;;-146.27;73.23;44790.22;5461684;26;19998;-65
2024/04/13 02:40:59;;;;;;;3.20;1.10;;;;;;;-146.27;73.43;44762.34;5454209;26;20042;-68
2024/04/13 02:43:31;;;;;;;9.05;1.40;;;;;;;-146.27;73.56;44686.75;5476140;26;20018;-67
2024/04/13 02:46:04;;;;;;;3.20;1.20;;;;;;;-146.27;73.45;44633.00;5460951;26;19994;-67
2024/04/13 02:48:29;;;;;;;7.10;1.40;;;;;;;-146.27;73.58;44619.09;5460769;26;20022;-67
2024/04/13 02:50:55;;;;;;;7.93;1.45;;;;;;;-146.27;74.26;44533.53;5453560;26;20356;-66
2024/04/13 02:53:20;;;;;;;5.60;1.58;;;;;;;-146.27;73.86;44535.50;5468064;26;20009;-67
2024/04/13 02:55:46;;;;;;;2.10;1.30;;;;;;;-146.27;73.85;44461.91;5481793;26;20002;-68
2024/04/13 02:58:11;;;;;;;3.35;1.38;;;;;;;-146.27;74.14;44438.00;5482593;26;19998;-69
2024/04/13 03:00:37;;;;;;;2.38;1.30;;;;;;;-146.27;73.81;44402.19;5453696;26;20014;-66
2024/04/13 03:03:02;;;;;;;2.25;1.20;;;;;;;-146.27;73.88;44410.16;5473115;26;19994;-66
2024/04/13 03:05:28;;;;;;;5.32;1.42;;;;;;;-146.27;74.15;44382.31;5458862;26;20010;-66
2024/04/13 03:07:53;;;;;;;3.00;1.42;;;;;;;-146.27;74.10;44382.31;5448794;26;20215;-72
2024/04/13 03:10:19;;;;;;;3.65;1.40;;;;;;;-146.27;74.39;44362.41;5467912;26;20483;-66
2024/04/13 03:12:46;;;;;;;2.10;1.30;;;;;;;-146.27;74.79;44330.56;5472185;26;19991;-67
2024/04/13 03:15:11;;;;;;;3.38;1.40;;;;;;;-146.27;74.70;44348.47;5451240;26;20442;-66
2024/04/13 03:17:36;;;;;;;4.47;1.30;;;;;;;-146.27;74.84;44302.72;5460416;26;19995;-69
2024/04/13 03:20:03;;;;;;;2.70;1.20;;;;;;;-146.27;75.60;44185.31;5460960;26;20002;-72
2024/04/13 03:22:33;;;;;;;8.93;3.08;;;;;;;-146.27;75.80;44173.38;5460077;26;20068;-72
2024/04/13 03:24:59;;;;;;;3.22;1.15;;;;;;;-146.27;74.55;44135.59;5453671;26;20011;-72
2024/04/13 03:27:24;;;;;;;3.95;1.60;;;;;;;-146.27;75.52;44155.47;5448222;26;19995;-71
2024/04/13 03:29:49;;;;;;;2.75;1.20;;;;;;;-146.27;75.75;44069.94;5453239;26;20014;-72
2024/04/13 03:32:15;;;;;;;5.57;1.50;;;;;;;-146.27;75.27;44089.81;5455743;26;20063;-71
2024/04/13 03:34:40;;;;;;;3.72;1.70;;;;;;;-146.27;75.77;44075.91;5451611;26;20030;-72
2024/04/13 03:37:07;;;;;;;6.55;2.17;;;;;;;-146.27;76.15;43982.38;5477582;26;20000;-72
2024/04/13 03:39:34;;;;;;;4.55;2.00;;;;;;;-146.27;75.92;43956.53;5460775;26;20130;-72
2024/04/13 03:41:59;;;;;;;4.13;1.73;;;;;;;-146.27;76.41;43958.53;5465219;26;20006;-72
2024/04/13 03:44:25;;;;;;;4.18;1.70;;;;;;;-146.27;76.02;43904.81;5453572;26;20355;-71
2024/04/13 03:46:50;;;;;;;6.68;1.83;;;;;;;-146.27;75.63;43948.56;5480760;26;20151;-72
2024/04/13 03:49:16;;;;;;;3.63;1.98;;;;;;;-146.27;76.28;43968.47;5459428;26;20006;-71
2024/04/13 03:51:41;;;;;;;4.30;1.77;;;;;;;-146.27;76.10;43898.84;5452826;26;20002;-71
2024/04/13 03:54:06;;;;;;;3.90;1.52;;;;;;;-146.27;76.41;43916.75;5459694;26;19994;-71
2024/04/13 03:56:32;;;;;;;5.00;1.48;;;;;;;-146.27;75.66;43884.91;5475216;26;19994;-71
2024/04/13 03:58:57;;;;;;;3.42;1.70;;;;;;;-146.27;76.24;43878.94;5453952;26;19994;-73
2024/04/13 04:01:24;;;;;;;3.97;1.77;;;;;;;-146.27;76.77;43904.81;5451229;26;20748;-72
2024/04/13 04:03:50;;;;;;;6.45;1.60;;;;;;;-146.27;77.10;43888.88;5456768;26;20010;-71
2024/04/13 04:06:16;;;;;;;5.68;1.98;;;;;;;-146.27;77.18;43851.09;5462210;26;20005;-71
2024/04/13 04:08:42;;;;;;;4.82;1.45;;;;;;;-146.27;77.07;43821.25;5481522;26;20013;-72
2024/04/13 04:11:07;;;;;;;3.50;1.92;;;;;;;-146.27;77.34;43781.47;5475396;26;20002;-72
2024/04/13 04:13:33;;;;;;;4.18;2.10;;;;;;;-146.27;78.05;43781.47;5476878;26;20342;-70
2024/04/13 04:15:58;;;;;;;2.45;1.60;;;;;;;-146.27;77.31;43705.84;5472724;26;20386;-71
2024/04/13 04:18:23;;;;;;;4.78;1.75;;;;;;;-146.27;77.14;43711.81;5487359;26;20399;-71
2024/04/13 04:20:49;;;;;;;3.38;1.90;;;;;;;-146.27;77.10;43767.53;5484005;26;20022;-71
2024/04/13 04:23:15;;;;;;;5.32;2.15;;;;;;;-146.27;77.50;43721.78;5480921;26;20006;-72
2024/04/13 04:25:40;;;;;;;6.93;2.25;;;;;;;-146.27;77.60;43747.63;5472036;26;20002;-73
2024/04/13 04:28:06;;;;;;;4.88;1.90;;;;;;;-146.27;77.28;43743.66;5455348;26;19998;-71
2024/04/13 04:30:31;;;;;;;5.15;1.80;;;;;;;-146.27;77.31;43733.72;5458762;26;20006;-70
2024/04/13 04:32:57;;;;;;;3.90;1.67;;;;;;;-146.27;77.12;43733.72;5455181;26;20049;-72
2024/04/13 04:35:22;;;;;;;3.85;2.00;;;;;;;-146.27;77.67;43741.66;5449294;26;19995;-72
2024/04/13 04:37:48;;;;;;;4.20;1.90;;;;;;;-146.27;77.16;43721.78;5450630;26;20010;-71
2024/04/13 04:40:14;;;;;;;8.80;1.80;;;;;;;-146.27;77.78;43757.59;5472827;26;20022;-72
2024/04/13 04:42:39;;;;;;;5.00;1.80;;;;;;;-146.27;77.38;43687.97;5453671;26;20543;-73
2024/04/13 04:45:08;;;;;;;2.63;1.73;;;;;;;-146.27;77.56;43755.59;5458159;26;20019;-71
2024/04/13 04:47:34;;;;;;;6.18;1.90;;;;;;;-146.27;77.98;43697.91;5475085;26;20388;-73
2024/04/13 04:50:00;;;;;;;6.43;1.95;;;;;;;-146.27;78.12;43757.59;5479404;26;20007;-71
2024/04/13 04:52:25;;;;;;;8.07;2.08;;;;;;;-146.27;78.27;43683.97;5453140;26;20143;-73
2024/04/13 04:54:51;;;;;;;4.80;1.80;;;;;;;-146.27;78.55;43741.66;5460180;26;19998;-73
2024/04/13 04:57:16;;;;;;;5.32;1.92;;;;;;;-146.27;79.34;43733.72;5454282;26;20005;-73
2024/04/13 04:59:42;;;;;;;5.90;1.50;;;;;;;-146.27;79.23;43695.91;5455308;26;19998;-70
2024/04/13 05:02:08;;;;;;;7.15;1.95;;;;;;;-146.27;78.48;43693.91;5469650;26;20018;-71
2024/04/13 05:04:33;;;;;;;6.15;2.05;;;;;;;-146.27;78.97;43745.66;5479421;26;20033;-71
2024/04/13 05:06:59;;;;;;;6.07;2.40;;;;;;;-146.27;79.34;43771.50;5453651;26;19995;-72
2024/04/13 05:09:24;;;;;;;6.55;2.00;;;;;;;-146.27;78.88;43787.44;5452566;26;19991;-72
2024/04/13 05:11:49;;;;;;;4.72;2.00;;;;;;;-146.27;78.61;43821.25;5460478;26;20009;-74
2024/04/13 05:14:18;;;;;;;4.55;2.13;;;;;;;-146.27;78.93;43914.75;5468396;26;20009;-73
2024/04/13 05:16:44;;;;;;;5.70;1.95;;;;;;;-146.27;79.30;43976.41;5450717;26;20086;-71
2024/04/13 05:19:11;;;;;;;10.55;2.42;;;;;;;-146.27;79.03;44014.22;5462543;26;20455;-72
2024/04/13 05:21:36;;;;;;;4.78;2.20;;;;;;;-146.27;78.95;44073.91;5469085;26;20006;-72
2024/04/13 05:24:02;;;;;;;8.43;2.03;;;;;;;-146.27;79.93;44143.53;5459804;26;20022;-73
2024/04/13 05:26:27;;;;;;;3.72;2.00;;;;;;;-146.27;78.61;44137.56;5450173;26;20710;-73
2024/04/13 05:28:53;;;;;;;4.80;2.30;;;;;;;-146.27;78.99;44247.00;5468164;26;19994;-73
2024/04/13 05:31:18;;;;;;;3.22;2.00;;;;;;;-146.27;78.95;44207.22;5462441;26;20196;-73
2024/04/13 05:33:44;;;;;;;4.45;1.85;;;;;;;-146.27;78.87;44223.13;5449722;26;20501;-72
2024/04/13 05:36:10;;;;;;;7.03;2.53;;;;;;;-146.27;78.14;44272.88;5456489;26;19998;-72
2024/04/13 05:38:35;;;;;;;3.72;2.28;;;;;;;-146.27;78.65;44256.94;5464639;26;20506;-71
2024/04/13 05:41:01;;;;;;;6.70;1.88;;;;;;;-146.27;78.85;44282.81;5475900;26;20434;-71
2024/04/13 05:43:27;;;;;;;2.83;1.73;;;;;;;-146.27;78.68;44239.03;5469302;26;20046;-73
2024/04/13 05:45:52;;;;;;;2.40;1.80;;;;;;;-146.27;78.24;44264.91;5451418;26;20042;-72
2024/04/13 05:48:19;;;;;;;4.43;1.90;;;;;;;-146.27;78.52;44239.03;5450071;26;20028;-72
2024/04/13 05:50:58;;;;;;;3.78;1.83;;;;;;;-146.27;77.65;44254.97;5451979;26;20007;-72
2024/04/13 05:53:24;;;;;;;7.90;1.73;;;;;;;-146.27;77.70;44221.13;5453014;26;20005;-71
2024/04/13 05:55:50;;;;;;;2.72;1.85;;;;;;;-146.27;77.66;44256.94;5471773;26;20346;-73
2024/04/13 05:58:16;;;;;;;5.00;2.25;;;;;;;-146.27;77.45;44282.81;5459551;26;20018;-72
2024/04/13 06:00:42;;;;;;;6.30;1.90;;;;;;;-146.27;76.52;44235.06;5476598;26;19998;-71
2024/04/13 06:03:07;;;;;;;5.93;1.80;;;;;;;-146.27;76.44;44215.16;5476153;26;20002;-69
2024/04/13 06:05:33;;;;;;;5.50;2.45;;;;;;;-146.27;76.08;44221.13;5458887;26;20013;-71
2024/04/13 06:07:58;;;;;;;5.00;2.20;;;;;;;-146.27;76.13;44243.03;5486498;26;19999;-72
2024/04/13 06:10:23;;;;;;;4.20;1.95;;;;;;;-146.27;76.38;44235.06;5455450;26;19999;-71
2024/04/13 06:12:50;;;;;;;4.75;2.30;;;;;;;-146.27;76.16;44213.19;5461486;26;19991;-72
2024/04/13 06:15:15;;;;;;;6.03;2.38;;;;;;;-146.27;75.74;44239.03;5463748;26;19995;-70
2024/04/13 06:17:41;;;;;;;4.80;2.35;;;;;;;-146.27;75.72;44274.84;5457639;26;19999;-72
2024/04/13 06:20:08;;;;;;;4.78;2.47;;;;;;;-146.27;76.32;44290.78;5450329;26;19995;-73
2024/04/13 06:22:36;;;;;;;5.28;2.30;;;;;;;-146.27;75.45;44231.09;5460801;26;20300;-71
2024/04/13 06:25:03;;;;;;;5.10;2.15;;;;;;;-146.27;75.66;44235.06;5462999;26;20006;-71
2024/04/13 06:27:30;;;;;;;4.10;2.25;;;;;;;-146.27;75.68;44243.03;5455335;26;20478;-72
2024/04/13 06:29:56;;;;;;;6.45;2.10;;;;;;;-146.27;75.46;44258.94;5456504;26;20692;-71
2024/04/13 06:32:21;;;;;;;3.70;2.15;;;;;;;-146.27;75.21;44298.75;5462903;26;19994;-72
2024/04/13 06:34:47;;;;;;;5.70;2.15;;;;;;;-146.27;75.91;44258.94;5456375;26;20067;-74
2024/04/13 06:37:13;;;;;;;7.10;2.28;;;;;;;-146.27;75.01;44298.75;5461331;26;19999;-71
2024/04/13 06:39:38;;;;;;;6.63;2.15;;;;;;;-146.27;74.74;44254.97;5466947;26;20011;-71
2024/04/13 06:42:05;;;;;;;3.38;1.92;;;;;;;-146.27;74.63;44219.16;5462024;26;20034;-72
2024/04/13 06:44:30;;;;;;;4.10;2.15;;;;;;;-146.27;74.37;44229.09;5460985;26;20017;-70
2024/04/13 06:46:55;;;;;;;3.97;2.10;;;;;;;-146.27;73.81;44199.25;5468864;26;19999;-72
2024/04/13 06:49:21;;;;;;;6.10;2.40;;;;;;;-146.27;74.03;44262.91;5470862;26;20511;-72
2024/04/13 06:51:47;;;;;;;4.97;2.25;;;;;;;-146.27;73.68;44247.00;5468051;26;20003;-72
2024/04/13 06:54:12;;;;;;;6.63;1.98;;;;;;;-146.27;73.65;44254.97;5458504;26;20010;-71
2024/04/13 06:56:38;;;;;;;10.25;1.95;;;;;;;-146.27;73.33;44199.25;5455158;26;20017;-72
2024/04/13 06:59:03;;;;;;;9.48;2.20;;;;;;;-146.27;72.63;44245.00;5470373;26;20014;-71
2024/04/13 07:01:29;;;;;;;5.82;2.58;;;;;;;-146.27;73.32;44262.91;5456018;26;20006;-72
2024/04/13 07:03:58;;;;;;;4.00;2.03;;;;;;;-146.27;73.18;44235.06;5462000;26;20027;-72
2024/04/13 07:06:23;;;;;;;8.20;2.08;;;;;;;-146.27;72.75;44268.88;5449866;26;20014;-71
2024/04/13 07:08:49;;;;;;;10.02;2.70;;;;;;;-146.27;72.35;44195.28;5470054;26;20458;-72
2024/04/13 07:11:15;;;;;;;5.53;2.67;;;;;;;-146.27;72.12;44167.41;5447221;26;19999;-70
2024/04/13 07:13:41;;;;;;;6.72;2.30;;;;;;;-146.27;72.20;44193.28;5464139;26;20393;-72
2024/04/13 07:16:07;;;;;;;3.20;1.95;;;;;;;-146.27;72.41;44282.81;5453733;26;20005;-73
2024/04/13 07:18:35;;;;;;;5.65;2.38;;;;;;;-146.27;72.10;44235.06;5465110;26;20007;-72
2024/04/13 07:21:00;;;;;;;4.00;2.47;;;;;;;-146.27;72.41;44235.06;5475216;26;20034;-73
2024/04/13 07:23:26;;;;;;;5.97;2.45;;;;;;;-146.27;71.58;44247.00;5474735;26;20064;-71
2024/04/13 07:26:02;;;;;;;7.72;2.63;;;;;;;-146.27;71.36;44243.03;5471272;26;20662;-72
2024/04/13 07:28:30;;;;;;;7.25;2.40;;;;;;;-146.27;72.15;44286.78;5466719;26;20435;-71
2024/04/13 07:30:55;;;;;;;4.03;2.15;;;;;;;-146.27;71.39;44282.81;5471139;26;20014;-72
2024/04/13 07:33:21;;;;;;;7.40;2.25;;;;;;;-146.27;71.42;44266.91;5485512;26;19998;-72
2024/04/13 07:35:46;;;;;;;3.60;2.47;;;;;;;-146.27;71.58;44274.84;5484943;26;19998;-71
2024/04/13 07:38:14;;;;;;;3.95;2.58;;;;;;;-146.27;70.67;44274.84;5471090;26;20118;-70
2024/04/13 07:40:40;;;;;;;4.28;2.20;;;;;;;-146.27;69.91;44243.03;5471454;26;20001;-72
2024/04/13 07:43:05;;;;;;;5.75;2.30;;;;;;;-146.27;70.62;44274.84;5448239;26;19991;-71
2024/04/13 07:45:31;;;;;;;5.55;2.40;;;;;;;-146.27;70.24;44262.91;5462893;26;20002;-71
2024/04/13 07:47:56;;;;;;;6.57;2.38;;;;;;;-146.27;70.01;44302.72;5461570;26;19991;-72
2024/04/13 07:50:22;;;;;;;5.00;2.28;;;;;;;-146.27;69.65;44288.78;5476765;26;20030;-72
2024/04/13 07:52:48;;;;;;;5.22;2.40;;;;;;;-146.27;69.18;44276.84;5484546;26;20525;-71
2024/04/13 07:55:13;;;;;;;3.78;2.15;;;;;;;-146.27;68.89;44237.06;5459642;26;19998;-72
2024/04/13 07:57:39;;;;;;;5.32;2.40;;;;;;;-146.27;68.62;44334.56;5461983;26;20009;-72
2024/04/13 08:00:06;;;;;;;4.50;2.65;;;;;;;-146.27;68.96;44422.09;5452190;26;20007;-72
2024/04/13 08:02:31;;;;;;;4.82;2.25;;;;;;;-146.27;68.36;44266.91;5461599;26;20051;-72
2024/04/13 08:04:57;;;;;;;4.90;2.22;;;;;;;-146.27;68.50;44360.41;5464804;26;20617;-73
2024/04/13 08:07:22;;;;;;;5.40;2.70;;;;;;;-146.27;67.59;44318.63;5466605;26;20009;-72
2024/04/13 08:09:47;;;;;;;4.22;2.35;;;;;;;-146.27;67.61;44336.53;5482338;26;19998;-69
2024/04/13 08:12:13;;;;;;;3.90;2.38;;;;;;;-146.27;67.31;44211.19;5483935;26;20450;-67
2024/04/13 08:14:38;;;;;;;3.58;2.17;;;;;;;-146.27;67.18;44286.78;5483925;26;19994;-66
2024/04/13 08:17:06;;;;;;;7.30;2.53;;;;;;;-146.27;66.96;44316.66;5482876;26;19990;-68
2024/04/13 08:19:32;;;;;;;3.17;2.20;;;;;;;-146.27;67.11;44215.16;5479737;26;19995;-66
2024/04/13 08:21:57;;;;;;;4.75;2.42;;;;;;;-146.27;66.16;44374.34;5482498;26;20663;-67
2024/04/13 08:24:23;;;;;;;5.15;2.78;;;;;;;-146.27;65.42;44249.00;5487561;26;20008;-68
2024/04/13 08:26:48;;;;;;;5.18;2.70;;;;;;;-146.27;65.41;44280.81;5487295;26;20001;-67
2024/04/13 08:29:13;;;;;;;5.47;2.85;;;;;;;-146.27;66.29;44324.59;5487910;26;20008;-69
2024/04/13 08:31:39;;;;;;;3.95;2.33;;;;;;;-146.27;65.31;44266.91;5487318;26;20001;-66
2024/04/13 08:34:05;;;;;;;3.70;2.40;;;;;;;-146.27;65.46;44348.47;5487686;26;20002;-66
2024/04/13 08:36:31;;;;;;;5.97;2.63;;;;;;;-146.27;64.76;44250.97;5455263;26;20017;-66
2024/04/13 08:38:57;;;;;;;4.28;2.95;;;;;;;-146.27;64.65;44312.66;5451113;26;20010;-67
2024/04/13 08:42:07;;;;;;;4.43;2.92;;;;;;;-146.27;64.62;44312.66;5450892;26;19998;-67
2024/04/13 08:44:37;;;;;;;5.28;2.60;;;;;;;-146.27;64.57;44418.13;5450652;26;19998;-65
2024/04/13 08:47:02;;;;;;;3.80;2.67;;;;;;;-146.27;65.64;44432.03;5458825;26;20001;-68
2024/04/13 08:49:30;;;;;;;3.63;2.08;;;;;;;-146.27;64.53;44274.84;5487823;26;19994;-71
2024/04/13 08:51:57;;;;;;;4.95;2.50;;;;;;;-146.27;63.98;44284.81;5487353;26;20484;-69
2024/04/13 08:54:22;;;;;;;4.55;2.25;;;;;;;-146.27;63.41;44316.66;5487230;26;19994;-68
2024/04/13 08:56:49;;;;;;;5.60;2.40;;;;;;;-146.27;62.84;44268.88;5487274;26;20073;-69
2024/04/13 08:59:16;;;;;;;6.13;2.58;;;;;;;-146.27;62.46;44258.94;5487262;26;20005;-69
2024/04/13 09:01:44;;;;;;;4.82;2.50;;;;;;;-146.27;62.51;44239.03;5484615;26;19994;-68
2024/04/13 09:04:10;;;;;;;5.93;2.67;;;;;;;-146.27;61.57;44235.06;5471877;26;20007;-68
2024/04/13 09:06:36;;;;;;;6.88;2.78;;;;;;;-146.27;61.82;44304.72;5468897;26;19994;-68
2024/04/13 09:09:08;;;;;;;5.18;2.85;;;;;;;-146.27;62.08;44316.66;5450882;26;20073;-68
2024/04/13 09:11:37;;;;;;;3.92;2.50;;;;;;;-146.27;61.23;44258.94;5472196;26;19994;-69
2024/04/13 09:14:03;;;;;;;8.90;2.75;;;;;;;-146.27;60.31;44274.84;5467517;26;20039;-69
2024/04/13 09:16:30;;;;;;;7.18;2.47;;;;;;;-146.27;59.93;44288.78;5477642;26;20013;-68
2024/04/13 09:18:56;;;;;;;4.45;2.88;;;;;;;-146.27;60.54;44390.25;5450843;26;19991;-72
2024/04/13 09:21:21;;;;;;;5.38;2.70;;;;;;;-146.27;61.08;44350.47;5466553;26;20002;-73
2024/04/13 09:23:49;;;;;;;7.60;3.33;;;;;;;-146.27;61.52;44430.06;5456757;26;20007;-72
2024/04/13 09:26:14;;;;;;;6.13;2.63;;;;;;;-146.27;61.75;44358.44;5466024;26;19994;-73
2024/04/13 09:28:46;;;;;;;4.53;2.50;;;;;;;-146.27;60.59;44290.78;5464077;26;20009;-72
2024/04/13 09:31:13;;;;;;;2.63;2.35;;;;;;;-146.27;60.62;44338.53;5469440;26;19991;-70
2024/04/13 09:33:40;;;;;;;6.05;2.45;;;;;;;-146.27;59.32;44231.09;5458611;26;19995;-71
2024/04/13 09:36:06;;;;;;;5.82;2.22;;;;;;;-146.27;58.53;44191.28;5480971;26;20071;-72
2024/04/13 09:38:32;;;;;;;7.45;2.45;;;;;;;-146.27;58.28;44300.72;5463624;26;19999;-74
2024/04/13 09:40:58;;;;;;;5.68;2.70;;;;;;;-146.27;57.86;44290.78;5452405;26;20368;-73
2024/04/13 09:43:23;;;;;;;5.28;2.50;;;;;;;-146.27;57.66;44278.84;5457413;26;20035;-71
2024/04/13 09:45:58;;;;;;;5.93;3.00;;;;;;;-146.27;57.30;44318.63;5483788;26;20009;-72
2024/04/13 09:48:23;;;;;;;6.18;3.08;;;;;;;-146.27;56.93;44233.06;5449721;26;19995;-72
2024/04/13 09:50:49;;;;;;;9.18;3.13;;;;;;;-146.27;56.29;44346.50;5461754;26;20006;-72
2024/04/13 09:53:17;;;;;;;10.25;3.42;;;;;;;-146.27;57.04;44378.31;5468328;26;20560;-71
2024/04/13 09:55:43;;;;;;;7.18;2.92;;;;;;;-146.27;55.97;44326.59;5449623;26;20021;-71
2024/04/13 09:58:10;;;;;;;7.40;3.15;;;;;;;-146.27;56.50;44378.31;5474452;26;20334;-71
2024/04/13 10:00:37;;;;;;;3.80;2.55;;;;;;;-146.27;56.73;44306.69;5480619;26;19999;-70
2024/04/13 10:03:03;;;;;;;7.80;2.78;;;;;;;-146.27;55.98;44231.09;5452440;26;20035;-71
2024/04/13 10:05:32;;;;;;;4.68;2.95;;;;;;;-146.27;54.52;44231.09;5480601;26;19994;-70
2024/04/13 10:07:59;;;;;;;5.72;3.60;;;;;;;-146.27;53.74;44356.44;5479206;26;20011;-71
2024/04/13 10:10:26;;;;;;;7.10;3.10;;;;;;;-146.27;54.92;44354.44;5468327;26;20006;-72
2024/04/13 10:12:53;;;;;;;6.47;3.58;;;;;;;-146.27;55.87;44354.44;5458198;26;20033;-71
2024/04/13 10:15:19;;;;;;;8.20;4.05;;;;;;;-146.27;55.52;44344.50;5481132;26;19994;-71
2024/04/13 10:17:46;;;;;;;8.48;4.40;;;;;;;-146.27;55.27;44424.09;5480638;26;20014;-70
2024/04/13 10:20:13;;;;;;;9.38;5.03;;;;;;;-146.27;56.42;44428.06;5475024;26;20838;-70
2024/04/13 10:22:39;;;;;;;10.93;4.93;;;;;;;-146.27;57.67;44330.56;5483624;26;20105;-71
2024/04/13 10:25:06;;;;;;;8.32;5.03;;;;;;;-146.27;56.91;44282.81;5463975;26;20736;-71
2024/04/13 10:27:33;;;;;;;6.45;4.28;;;;;;;-146.27;55.15;44127.63;5458714;26;20009;-70
2024/04/13 10:30:00;;;;;;;9.45;4.80;;;;;;;-146.27;56.52;44107.72;5482534;26;19998;-69
2024/04/13 10:32:25;;;;;;;12.32;5.70;;;;;;;-146.27;54.86;44133.59;5461644;26;20481;-70
2024/04/13 10:34:51;;;;;;;8.15;5.20;;;;;;;-146.27;55.08;44048.03;5468164;26;19990;-67
2024/04/13 10:37:30;;;;;;;13.57;6.50;;;;;;;-146.27;57.36;44177.38;5475990;26;20026;-68
2024/04/13 10:40:01;;;;;;;10.95;6.10;;;;;;;-146.27;56.09;44159.47;5487259;26;20005;-68
2024/04/13 10:42:37;;;;;;;12.68;6.45;;;;;;;-146.27;57.41;44032.13;5489176;25;20006;-67
2024/04/13 10:45:23;;;;;;;14.27;6.70;;;;;;;-146.27;56.46;44018.19;5469613;26;20012;-69
2024/04/13 10:47:49;;;;;;;14.02;6.35;;;;;;;-146.27;56.30;44032.13;5460937;26;20417;-70
2024/04/13 10:50:16;;;;;;;10.52;6.30;;;;;;;-146.27;57.11;44071.91;5452187;26;20127;-68
2024/04/13 10:52:43;;;;;;;11.38;6.35;;;;;;;-146.27;56.33;44250.97;5488590;26;19990;-68
2024/04/13 10:55:12;;;;;;;6.18;5.57;;;;;;;-146.27;56.05;44133.59;5469355;26;19999;-68
2024/04/13 10:57:43;;;;;;;15.38;6.05;;;;;;;-146.27;55.93;44022.19;5473482;26;20474;-71
2024/04/13 11:00:09;;;;;;;10.65;5.65;;;;;;;-146.27;55.49;44231.09;5465283;26;19994;-69
2024/04/13 11:02:37;;;;;;;13.75;5.05;;;;;;;-146.27;54.37;44077.88;5484486;26;19995;-70
2024/04/13 11:05:04;;;;;;;10.27;6.03;;;;;;;-146.27;55.50;44205.22;5469175;26;20013;-69
2024/04/13 11:07:30;;;;;;;11.63;5.57;;;;;;;-146.27;55.54;44103.75;5482540;25;20005;-68
2024/04/13 11:09:55;;;;;;;8.77;5.70;;;;;;;-146.27;54.95;43932.66;5486704;26;19998;-69
2024/04/13 11:12:22;;;;;;;7.63;5.40;;;;;;;-146.27;54.08;43978.41;5465405;25;20453;-68
2024/04/13 11:14:49;;;;;;;9.45;5.32;;;;;;;-146.27;53.87;43948.56;5471597;26;20306;-68